Time;durP1;ratioP1;P1;durP2;ratioP2;P2;SDS_P1;SDS_P2;PMS_P1;PMS_P2;Temp;Humidity;BMP_temperature;BMP_pressure;BME280_temperature;BME280_humidity;BME280_pressure;Samples;Min_cycle;Max_cycle;Signal;HPM_P1;HPM_P2
2021/01/25 00:00:12;;;;;;;1.23;0.10;;;3.90;85.40;;;;;;5008847;28;20366;-59
2021/01/25 00:02:40;;;;;;;1.17;0.10;;;3.80;87.60;;;;;;5005106;28;20050;-59
2021/01/25 00:05:08;;;;;;;1.05;0.20;;;3.70;90.00;;;;;;4996149;28;20044;-58
2021/01/25 00:07:35;;;;;;;0.77;0.10;;;3.60;90.90;;;;;;4997692;28;20037;-58
2021/01/25 00:10:02;;;;;;;0.47;0.20;;;3.60;92.00;;;;;;5009615;28;20050;-58
2021/01/25 00:12:29;;;;;;;1.10;0.28;;;3.50;93.40;;;;;;4998620;28;20054;-58
2021/01/25 00:14:56;;;;;;;1.05;0.20;;;3.30;96.20;;;;;;5007238;28;20042;-59
2021/01/25 00:17:23;;;;;;;1.02;0.20;;;3.20;98.80;;;;;;5011054;28;20105;-58
2021/01/25 00:19:49;;;;;;;1.13;0.25;;;3.10;99.90;;;;;;5008053;28;20029;-59
2021/01/25 00:22:16;;;;;;;1.60;0.30;;;3.00;99.90;;;;;;5006128;28;20073;-60
2021/01/25 00:24:42;;;;;;;0.95;0.20;;;2.80;99.90;;;;;;5008436;28;20453;-59
2021/01/25 00:27:09;;;;;;;1.40;0.20;;;2.80;99.90;;;;;;4989876;28;20412;-58
2021/01/25 00:29:35;;;;;;;1.27;0.47;;;2.70;99.90;;;;;;5011398;28;20543;-59
2021/01/25 00:32:02;;;;;;;1.73;0.40;;;2.60;99.90;;;;;;5007764;28;20038;-59
2021/01/25 00:34:29;;;;;;;2.08;0.45;;;2.60;99.90;;;;;;5010526;28;20038;-59
2021/01/25 00:36:55;;;;;;;2.70;1.05;;;2.50;99.90;;;;;;5025673;28;20060;-60
2021/01/25 00:39:22;;;;;;;6.80;2.42;;;2.50;99.90;;;;;;5005242;28;20445;-59
2021/01/25 00:41:49;;;;;;;10.70;3.60;;;2.50;99.90;;;;;;5007977;28;20492;-60
2021/01/25 00:44:15;;;;;;;11.35;3.35;;;2.40;99.90;;;;;;5005086;28;20049;-60
2021/01/25 00:46:42;;;;;;;4.90;1.13;;;2.30;99.90;;;;;;5004976;28;20053;-59
2021/01/25 00:49:09;;;;;;;11.48;4.25;;;2.30;99.90;;;;;;5010115;28;20100;-59
2021/01/25 00:51:35;;;;;;;33.40;9.90;;;2.20;99.90;;;;;;5009004;28;20042;-60
2021/01/25 00:54:02;;;;;;;14.88;6.05;;;2.10;99.90;;;;;;5008012;28;20113;-59
2021/01/25 00:56:29;;;;;;;9.10;3.58;;;2.00;99.90;;;;;;5002349;28;20050;-60
2021/01/25 00:58:56;;;;;;;6.53;2.35;;;2.00;99.90;;;;;;5009229;28;20092;-58
2021/01/25 01:01:23;;;;;;;7.80;3.47;;;1.90;99.90;;;;;;5009919;28;20049;-58
2021/01/25 01:03:50;;;;;;;10.90;4.22;;;1.80;99.90;;;;;;5005723;28;20042;-58
2021/01/25 01:06:16;;;;;;;5.25;1.73;;;1.80;99.90;;;;;;5008796;28;20038;-59
2021/01/25 01:08:43;;;;;;;4.72;1.42;;;1.80;99.90;;;;;;5009452;28;20056;-59
2021/01/25 01:11:10;;;;;;;4.38;1.25;;;1.70;99.90;;;;;;5008724;28;20046;-59
2021/01/25 01:13:37;;;;;;;4.25;1.35;;;1.70;99.90;;;;;;5007467;28;20066;-59
2021/01/25 01:16:05;;;;;;;4.88;1.77;;;1.70;99.90;;;;;;5008498;28;20730;-59
2021/01/25 01:18:34;;;;;;;6.40;1.92;;;1.60;99.90;;;;;;5011539;28;20049;-59
2021/01/25 01:21:03;;;;;;;5.05;1.73;;;1.70;99.90;;;;;;5006294;28;20045;-59
2021/01/25 01:23:29;;;;;;;4.63;1.50;;;1.60;99.90;;;;;;5004757;28;20042;-59
2021/01/25 01:25:56;;;;;;;5.78;1.63;;;1.60;99.90;;;;;;5005801;28;20053;-60
2021/01/25 01:28:22;;;;;;;6.78;1.90;;;1.50;99.90;;;;;;5004401;28;20428;-59
2021/01/25 01:30:49;;;;;;;4.35;1.38;;;1.50;99.90;;;;;;5010932;28;20041;-58
2021/01/25 01:33:15;;;;;;;5.97;1.77;;;1.50;99.90;;;;;;5008863;28;20111;-58
2021/01/25 01:35:42;;;;;;;3.50;1.52;;;1.40;99.90;;;;;;5009140;28;20088;-58
2021/01/25 01:38:08;;;;;;;6.15;2.13;;;1.40;99.90;;;;;;5003831;28;20408;-58
2021/01/25 01:40:35;;;;;;;4.20;1.38;;;1.40;99.90;;;;;;5011061;28;20045;-58
2021/01/25 01:43:02;;;;;;;4.13;1.15;;;1.40;99.90;;;;;;5008732;28;20054;-58
2021/01/25 01:45:28;;;;;;;4.65;1.40;;;1.30;99.90;;;;;;5006843;28;20045;-58
2021/01/25 01:47:56;;;;;;;6.60;1.88;;;1.30;99.90;;;;;;5000225;28;20038;-59
2021/01/25 01:50:23;;;;;;;5.43;2.38;;;1.30;99.90;;;;;;5004959;28;20128;-58
2021/01/25 01:52:49;;;;;;;7.32;1.88;;;1.20;99.90;;;;;;5004408;28;20046;-58
2021/01/25 01:55:18;;;;;;;6.55;2.15;;;1.30;99.90;;;;;;5023186;28;20054;-57
2021/01/25 01:57:50;;;;;;;7.00;2.30;;;1.30;99.90;;;;;;5008069;28;20041;-57
2021/01/25 02:00:17;;;;;;;6.93;2.63;;;1.20;99.90;;;;;;4988110;28;20061;-58
2021/01/25 02:02:44;;;;;;;7.40;2.10;;;1.30;99.90;;;;;;4991276;28;20169;-57
2021/01/25 02:05:12;;;;;;;5.53;1.65;;;1.30;99.90;;;;;;5005430;28;20053;-58
2021/01/25 02:07:42;;;;;;;7.07;2.00;;;1.30;99.90;;;;;;5009842;28;20531;-57
2021/01/25 02:10:10;;;;;;;6.78;2.55;;;1.30;99.90;;;;;;5011259;28;20472;-59
2021/01/25 02:12:37;;;;;;;6.13;1.92;;;1.40;99.90;;;;;;5007480;28;20046;-58
2021/01/25 02:15:04;;;;;;;6.07;2.15;;;1.30;99.90;;;;;;5007957;28;20398;-58
2021/01/25 02:17:30;;;;;;;6.50;2.17;;;1.40;99.90;;;;;;5009421;28;20630;-58
2021/01/25 02:20:19;;;;;;;5.47;1.92;;;1.40;99.90;;;;;;5011677;28;20455;-57
2021/01/25 02:23:03;;;;;;;6.72;2.35;;;1.40;99.90;;;;;;5003976;28;20053;-58
2021/01/25 02:25:39;;;;;;;6.30;2.35;;;1.40;99.90;;;;;;5007793;28;20699;-58
2021/01/25 02:28:06;;;;;;;7.00;2.00;;;1.50;99.90;;;;;;5010692;28;20046;-57
2021/01/25 02:30:34;;;;;;;4.88;2.10;;;1.50;99.90;;;;;;5012960;28;20111;-58
2021/01/25 02:33:01;;;;;;;9.18;2.67;;;1.50;99.90;;;;;;5012864;28;20048;-58
2021/01/25 02:35:29;;;;;;;8.93;2.55;;;1.50;99.90;;;;;;5010785;28;20121;-58
2021/01/25 02:37:57;;;;;;;6.93;2.75;;;1.50;99.90;;;;;;5008825;28;20046;-59
2021/01/25 02:40:25;;;;;;;7.40;2.40;;;1.60;99.90;;;;;;5010161;28;20058;-57
2021/01/25 02:42:55;;;;;;;4.32;1.85;;;1.60;99.90;;;;;;5020513;28;20043;-58
2021/01/25 02:45:23;;;;;;;6.95;2.22;;;1.70;99.90;;;;;;5006838;28;20049;-58
2021/01/25 02:47:51;;;;;;;4.60;1.83;;;1.70;99.90;;;;;;5008754;28;20041;-58
2021/01/25 02:50:18;;;;;;;7.13;2.45;;;1.70;99.90;;;;;;5002805;28;20046;-58
2021/01/25 02:52:44;;;;;;;7.78;2.30;;;1.70;99.90;;;;;;5007230;28;20042;-59
2021/01/25 02:55:11;;;;;;;6.00;2.25;;;1.70;99.90;;;;;;4998358;28;20045;-58
2021/01/25 02:57:39;;;;;;;6.30;2.20;;;1.70;99.90;;;;;;5012432;28;20570;-58
2021/01/25 03:00:08;;;;;;;6.43;1.67;;;1.80;99.90;;;;;;5008446;28;20514;-58
2021/01/25 03:02:37;;;;;;;7.53;2.10;;;1.70;99.90;;;;;;5012752;28;20046;-58
2021/01/25 03:05:05;;;;;;;4.45;1.55;;;1.70;99.90;;;;;;5011318;28;20046;-58
2021/01/25 03:07:32;;;;;;;6.35;1.35;;;1.70;99.90;;;;;;5012463;28;20049;-57
2021/01/25 03:10:00;;;;;;;6.90;1.70;;;1.70;99.90;;;;;;5006227;28;20034;-58
2021/01/25 03:12:27;;;;;;;6.45;1.65;;;1.70;99.90;;;;;;5005071;28;20061;-58
2021/01/25 03:14:54;;;;;;;4.50;1.70;;;1.80;99.90;;;;;;5011610;28;20037;-57
2021/01/25 03:17:21;;;;;;;3.88;1.05;;;1.80;99.90;;;;;;5007647;28;20468;-57
2021/01/25 03:19:48;;;;;;;6.03;1.00;;;1.80;99.90;;;;;;5012126;28;20044;-57
2021/01/25 03:22:14;;;;;;;3.92;1.08;;;1.80;99.90;;;;;;5010735;28;20037;-58
2021/01/25 03:24:41;;;;;;;4.78;1.35;;;1.80;99.90;;;;;;5011090;28;20034;-58
2021/01/25 03:27:07;;;;;;;5.22;1.10;;;1.80;99.90;;;;;;5008383;28;20481;-59
2021/01/25 03:29:35;;;;;;;3.53;1.10;;;1.90;99.90;;;;;;5007222;28;20057;-58
2021/01/25 03:32:02;;;;;;;3.38;1.00;;;1.80;99.90;;;;;;5011065;28;20053;-58
2021/01/25 03:34:29;;;;;;;5.85;1.25;;;1.90;99.90;;;;;;5011672;28;20469;-57
2021/01/25 03:36:55;;;;;;;4.47;1.33;;;1.90;99.90;;;;;;5006723;28;20456;-58
2021/01/25 03:39:22;;;;;;;3.75;1.25;;;1.80;99.90;;;;;;5015018;28;20058;-57
2021/01/25 03:41:48;;;;;;;4.78;1.50;;;1.90;99.90;;;;;;5010583;28;20119;-57
2021/01/25 03:44:16;;;;;;;2.58;0.60;;;1.90;99.90;;;;;;5007203;28;20045;-58
2021/01/25 03:46:46;;;;;;;2.35;0.90;;;1.90;99.90;;;;;;5005546;28;20073;-57
2021/01/25 03:49:16;;;;;;;4.60;0.85;;;1.90;99.90;;;;;;5012632;28;20054;-57
2021/01/25 03:51:43;;;;;;;1.98;0.57;;;1.90;99.90;;;;;;5007606;28;20049;-57
2021/01/25 03:54:11;;;;;;;4.15;0.80;;;1.90;99.90;;;;;;5008653;28;20112;-57
2021/01/25 03:56:39;;;;;;;1.70;0.77;;;1.90;99.90;;;;;;5005593;28;20517;-58
2021/01/25 03:59:05;;;;;;;1.65;0.88;;;1.90;99.90;;;;;;4996988;28;20052;-59
2021/01/25 04:01:32;;;;;;;4.10;0.50;;;1.80;99.90;;;;;;5008044;28;20053;-57
2021/01/25 04:03:59;;;;;;;2.10;0.60;;;1.90;99.90;;;;;;5010348;28;20045;-60
2021/01/25 04:06:26;;;;;;;1.65;0.60;;;1.90;99.90;;;;;;5009465;28;20050;-57
2021/01/25 04:08:53;;;;;;;2.22;0.70;;;1.90;99.90;;;;;;5008652;28;20049;-57
2021/01/25 04:11:19;;;;;;;4.05;0.85;;;1.90;99.90;;;;;;5000176;28;20038;-58
2021/01/25 04:13:46;;;;;;;4.70;0.80;;;1.90;99.90;;;;;;5004127;28;20046;-59
2021/01/25 04:16:12;;;;;;;2.85;0.63;;;1.90;99.90;;;;;;5004188;28;20555;-58
2021/01/25 04:18:39;;;;;;;2.22;1.08;;;1.90;99.90;;;;;;5008976;28;20034;-59
2021/01/25 04:21:05;;;;;;;3.92;1.05;;;1.90;99.90;;;;;;5006085;28;20515;-58
2021/01/25 04:23:32;;;;;;;3.17;0.80;;;1.90;99.90;;;;;;5008136;28;20064;-57
2021/01/25 04:25:58;;;;;;;2.60;1.10;;;1.90;99.90;;;;;;5006872;28;20097;-58
2021/01/25 04:28:25;;;;;;;3.95;0.80;;;1.90;99.90;;;;;;4995376;28;20046;-57
2021/01/25 04:30:51;;;;;;;3.03;0.77;;;2.00;99.90;;;;;;5005255;28;20489;-57
2021/01/25 04:33:18;;;;;;;2.50;0.75;;;2.00;99.90;;;;;;5007547;28;20042;-58
2021/01/25 04:35:45;;;;;;;2.15;0.93;;;2.00;99.90;;;;;;5011965;28;20094;-59
2021/01/25 04:38:11;;;;;;;3.72;0.70;;;2.00;99.90;;;;;;5007926;28;20056;-58
2021/01/25 04:40:38;;;;;;;1.92;0.95;;;2.10;99.90;;;;;;5009166;28;20054;-59
2021/01/25 04:43:04;;;;;;;3.42;1.10;;;2.00;99.90;;;;;;5005230;28;20057;-57
2021/01/25 04:45:31;;;;;;;8.88;3.05;;;2.10;99.90;;;;;;5004940;28;20052;-57
2021/01/25 04:48:00;;;;;;;8.57;3.40;;;2.10;99.90;;;;;;5005665;28;20036;-58
2021/01/25 04:50:27;;;;;;;3.00;0.85;;;2.10;99.90;;;;;;5006547;28;20056;-58
2021/01/25 04:52:54;;;;;;;6.28;2.00;;;2.10;99.90;;;;;;5023284;28;20049;-57
2021/01/25 04:55:21;;;;;;;5.50;2.63;;;2.10;99.90;;;;;;5005475;28;20481;-57
2021/01/25 04:57:49;;;;;;;3.30;1.02;;;2.20;99.90;;;;;;5007309;28;20100;-58
2021/01/25 05:00:19;;;;;;;3.45;1.88;;;2.20;99.90;;;;;;5009152;28;20038;-58
2021/01/25 05:02:46;;;;;;;4.50;1.30;;;2.20;99.90;;;;;;5007369;28;20046;-57
2021/01/25 05:05:12;;;;;;;4.53;1.20;;;2.20;99.90;;;;;;5005914;28;20042;-58
2021/01/25 05:07:39;;;;;;;5.30;1.88;;;2.20;99.90;;;;;;5008760;28;20049;-58
2021/01/25 05:10:07;;;;;;;7.13;3.03;;;2.20;99.90;;;;;;5015596;28;20038;-58
2021/01/25 05:12:51;;;;;;;5.50;1.70;;;2.20;99.90;;;;;;5007561;28;20042;-57
2021/01/25 05:15:26;;;;;;;4.80;1.13;;;2.20;99.90;;;;;;5007072;28;20767;-58
2021/01/25 05:17:57;;;;;;;4.47;1.80;;;2.20;99.90;;;;;;5006452;28;20042;-58
2021/01/25 05:20:25;;;;;;;6.22;1.35;;;2.20;99.90;;;;;;5008654;28;20054;-57
2021/01/25 05:22:52;;;;;;;4.53;1.90;;;2.20;99.90;;;;;;5003355;28;20061;-60
2021/01/25 05:25:23;;;;;;;4.28;1.77;;;2.20;99.90;;;;;;5011278;28;20042;-59
2021/01/25 05:27:50;;;;;;;3.15;2.03;;;2.20;99.90;;;;;;5009093;28;20045;-57
2021/01/25 05:30:17;;;;;;;4.85;1.95;;;2.20;99.90;;;;;;5010393;28;20053;-58
2021/01/25 05:32:58;;;;;;;14.23;4.63;;;2.20;99.90;;;;;;5003806;28;20045;-58
2021/01/25 05:35:30;;;;;;;4.78;2.92;;;2.20;99.90;;;;;;5009582;28;20046;-59
2021/01/25 05:37:58;;;;;;;6.27;2.03;;;2.20;99.90;;;;;;5007581;28;20050;-59
2021/01/25 05:40:30;;;;;;;4.90;2.60;;;2.20;99.90;;;;;;5008869;28;20294;-59
2021/01/25 05:42:57;;;;;;;5.72;2.45;;;2.20;99.90;;;;;;5011685;28;20492;-57
2021/01/25 05:45:27;;;;;;;5.53;2.25;;;2.20;99.90;;;;;;4995703;28;20089;-58
2021/01/25 05:47:55;;;;;;;4.13;2.30;;;2.20;99.90;;;;;;5012294;28;20049;-58
2021/01/25 05:50:36;;;;;;;5.50;2.05;;;2.20;99.90;;;;;;5013392;28;20052;-58
2021/01/25 05:53:08;;;;;;;5.68;2.80;;;2.20;99.90;;;;;;5010938;28;20041;-58
2021/01/25 05:55:36;;;;;;;6.67;2.47;;;2.20;99.90;;;;;;5013782;28;20508;-59
2021/01/25 05:58:03;;;;;;;4.05;1.80;;;2.20;99.90;;;;;;5011362;28;20034;-58
2021/01/25 06:00:31;;;;;;;5.88;2.10;;;2.10;99.90;;;;;;5003287;28;20038;-58
2021/01/25 06:02:57;;;;;;;4.00;1.73;;;2.20;99.90;;;;;;5011021;28;20042;-58
2021/01/25 06:05:32;;;;;;;4.80;2.30;;;2.20;99.90;;;;;;5011488;28;20034;-59
2021/01/25 06:08:23;;;;;;;6.63;2.88;;;2.10;99.90;;;;;;5013425;28;20045;-60
2021/01/25 06:11:02;;;;;;;6.60;2.50;;;2.20;99.90;;;;;;5010473;28;20042;-58
2021/01/25 06:13:35;;;;;;;9.73;2.65;;;2.20;99.90;;;;;;5007934;28;20062;-58
2021/01/25 06:16:04;;;;;;;5.50;2.45;;;2.10;99.90;;;;;;5008733;28;20054;-58
2021/01/25 06:18:32;;;;;;;7.18;2.88;;;2.20;99.90;;;;;;5004400;28;20058;-58
2021/01/25 06:21:01;;;;;;;10.70;4.43;;;2.20;99.90;;;;;;5010526;28;20057;-58
2021/01/25 06:23:29;;;;;;;7.82;3.40;;;2.20;99.90;;;;;;5012187;28;20486;-60
2021/01/25 06:25:56;;;;;;;7.93;2.97;;;2.20;99.90;;;;;;5013511;28;20053;-58
2021/01/25 06:28:24;;;;;;;10.70;4.15;;;2.20;99.90;;;;;;5014808;28;20100;-58
2021/01/25 06:30:50;;;;;;;8.32;3.38;;;2.20;99.90;;;;;;5007890;28;20196;-59
2021/01/25 06:33:21;;;;;;;7.80;3.15;;;2.20;99.90;;;;;;5004149;28;20432;-57
2021/01/25 06:35:51;;;;;;;5.53;2.40;;;2.20;99.90;;;;;;4999600;28;20398;-58
2021/01/25 06:38:21;;;;;;;7.43;3.33;;;2.20;99.90;;;;;;5006311;28;20116;-58
2021/01/25 06:40:49;;;;;;;8.85;3.53;;;2.30;99.90;;;;;;5012199;28;20038;-58
2021/01/25 06:43:18;;;;;;;6.25;2.42;;;2.30;99.90;;;;;;5011847;28;20049;-58
2021/01/25 06:45:47;;;;;;;5.57;2.63;;;2.30;99.90;;;;;;5011877;28;20386;-59
2021/01/25 06:48:15;;;;;;;7.57;2.90;;;2.30;99.90;;;;;;5013386;28;20042;-58
2021/01/25 06:50:47;;;;;;;8.25;3.55;;;2.30;99.90;;;;;;5010816;28;20400;-59
2021/01/25 06:53:14;;;;;;;9.75;3.55;;;2.30;99.90;;;;;;5009298;28;20042;-58
2021/01/25 06:55:44;;;;;;;6.07;2.53;;;2.30;99.90;;;;;;5010813;28;20041;-58
2021/01/25 06:58:12;;;;;;;7.25;2.97;;;2.20;99.90;;;;;;5011414;28;20042;-58
2021/01/25 07:00:39;;;;;;;6.30;2.90;;;2.20;99.90;;;;;;5010246;28;20042;-59
2021/01/25 07:03:08;;;;;;;6.53;2.67;;;2.30;99.90;;;;;;5005842;28;20049;-60
2021/01/25 07:05:38;;;;;;;6.15;2.50;;;2.30;99.90;;;;;;5011346;28;20044;-60
2021/01/25 07:08:19;;;;;;;5.57;2.45;;;2.40;99.90;;;;;;5005898;28;20048;-58
2021/01/25 07:11:00;;;;;;;6.70;2.83;;;2.40;99.90;;;;;;5024116;28;20062;-59
2021/01/25 07:13:30;;;;;;;6.32;2.90;;;2.40;99.90;;;;;;5005680;28;20054;-58
2021/01/25 07:15:58;;;;;;;5.18;2.72;;;2.40;99.90;;;;;;5008532;28;20043;-59
2021/01/25 07:18:27;;;;;;;5.45;2.25;;;2.40;99.90;;;;;;5011145;28;20050;-59
2021/01/25 07:20:55;;;;;;;5.07;2.22;;;2.40;99.90;;;;;;5010451;28;20054;-57
2021/01/25 07:23:24;;;;;;;6.57;2.83;;;2.40;99.90;;;;;;5010598;28;20053;-58
2021/01/25 07:26:02;;;;;;;6.25;2.60;;;2.40;99.90;;;;;;5011556;28;20492;-57
2021/01/25 07:28:30;;;;;;;5.90;2.80;;;2.50;99.90;;;;;;5008000;28;20509;-58
2021/01/25 07:30:58;;;;;;;7.82;2.60;;;2.50;99.90;;;;;;5005599;28;20085;-58
2021/01/25 07:33:26;;;;;;;7.75;3.20;;;2.50;99.90;;;;;;5010905;28;20125;-59
2021/01/25 07:35:53;;;;;;;9.63;3.42;;;2.50;99.90;;;;;;5009304;28;20037;-58
2021/01/25 07:38:21;;;;;;;7.68;3.55;;;2.50;99.90;;;;;;5009713;28;20520;-58
2021/01/25 07:40:49;;;;;;;6.88;3.15;;;2.60;99.90;;;;;;5006870;28;20500;-59
2021/01/25 07:43:17;;;;;;;5.75;2.80;;;2.50;99.90;;;;;;5022611;28;20096;-60
2021/01/25 07:45:45;;;;;;;9.82;2.88;;;2.60;99.90;;;;;;5009278;28;20046;-61
2021/01/25 07:48:13;;;;;;;8.23;3.38;;;2.50;99.90;;;;;;5020762;28;20060;-60
2021/01/25 07:50:40;;;;;;;7.18;3.15;;;2.60;99.90;;;;;;5009472;28;20112;-59
2021/01/25 07:53:07;;;;;;;9.07;4.32;;;2.60;99.90;;;;;;5010573;28;20041;-59
2021/01/25 07:55:38;;;;;;;8.05;3.13;;;2.60;99.90;;;;;;5007148;28;20046;-60
2021/01/25 07:58:12;;;;;;;8.98;3.13;;;2.60;99.90;;;;;;4997786;28;20050;-58
2021/01/25 08:00:42;;;;;;;9.20;2.92;;;2.60;99.90;;;;;;5005739;28;20035;-57
2021/01/25 08:03:28;;;;;;;7.80;3.00;;;2.70;99.90;;;;;;5010476;28;20042;-60
2021/01/25 08:05:57;;;;;;;6.38;2.78;;;2.70;99.90;;;;;;5004653;28;20042;-60
2021/01/25 08:08:26;;;;;;;7.93;2.65;;;2.70;99.90;;;;;;5011730;28;20026;-59
2021/01/25 08:10:54;;;;;;;6.70;2.75;;;2.80;99.90;;;;;;5010367;28;20704;-59
2021/01/25 08:13:44;;;;;;;4.35;2.50;;;2.80;99.90;;;;;;5011146;28;20057;-59
2021/01/25 08:16:17;;;;;;;9.25;3.00;;;2.80;99.90;;;;;;5009961;28;20042;-59
2021/01/25 08:19:21;;;;;;;8.02;2.72;;;2.80;99.90;;;;;;5008901;28;20719;-56
2021/01/25 08:22:19;;;;;;;6.43;2.25;;;2.90;99.90;;;;;;4995914;28;20042;-59
2021/01/25 08:25:00;;;;;;;6.40;2.72;;;2.90;99.90;;;;;;5004968;28;20049;-58
2021/01/25 08:27:30;;;;;;;8.20;3.00;;;2.90;99.90;;;;;;5010191;28;20033;-59
2021/01/25 08:30:19;;;;;;;6.03;2.22;;;3.00;99.90;;;;;;5010588;28;20046;-58
2021/01/25 08:32:49;;;;;;;6.78;2.80;;;3.00;99.90;;;;;;4990468;28;20413;-62
2021/01/25 08:35:29;;;;;;;12.05;2.85;;;3.10;99.90;;;;;;5006139;28;20037;-59
2021/01/25 08:38:16;;;;;;;7.60;2.95;;;3.10;99.90;;;;;;5008088;28;20057;-58
2021/01/25 08:40:44;;;;;;;6.22;3.05;;;3.20;99.90;;;;;;5003882;28;20049;-59
2021/01/25 08:43:40;;;;;;;8.52;3.15;;;3.30;99.90;;;;;;4999007;28;20485;-58
2021/01/25 08:46:13;;;;;;;8.38;3.10;;;3.40;99.90;;;;;;5007012;28;20060;-58
2021/01/25 08:48:40;;;;;;;;;;;3.40;99.90;;;;;;5019146;28;20052;-59
2021/01/25 08:51:23;;;;;;;5.70;2.42;;;3.40;99.90;;;;;;5004296;28;19980;-58
2021/01/25 08:53:59;;;;;;;;;;;3.30;99.90;;;;;;5006876;28;20045;-58
2021/01/25 08:56:37;;;;;;;7.50;3.55;;;3.40;99.90;;;;;;5004034;28;19928;-57
2021/01/25 08:59:28;;;;;;;6.75;3.05;;;3.50;99.90;;;;;;5002690;28;20038;-59
2021/01/25 09:01:55;;;;;;;8.57;3.67;;;3.60;99.90;;;;;;5004900;28;20069;-58
2021/01/25 09:04:22;;;;;;;6.40;3.03;;;3.80;99.90;;;;;;5008231;28;20054;-59
2021/01/25 09:06:50;;;;;;;6.78;2.83;;;3.90;99.90;;;;;;5008479;28;20065;-59
2021/01/25 09:09:18;;;;;;;8.50;2.90;;;4.10;99.90;;;;;;5010294;28;20393;-58
2021/01/25 09:11:44;;;;;;;6.75;2.75;;;4.20;99.90;;;;;;5007655;28;20362;-59
2021/01/25 09:14:16;;;;;;;5.82;2.80;;;4.20;99.90;;;;;;5011067;28;20129;-58
2021/01/25 09:16:44;;;;;;;9.18;4.53;;;4.20;99.90;;;;;;5011114;28;20046;-59
2021/01/25 09:19:11;;;;;;;8.35;4.05;;;4.30;99.90;;;;;;5010230;28;20053;-59
2021/01/25 09:21:38;;;;;;;5.40;2.58;;;4.30;99.90;;;;;;5000160;28;20398;-59
2021/01/25 09:24:05;;;;;;;6.75;3.40;;;4.30;99.90;;;;;;5004056;28;20088;-58
2021/01/25 09:26:32;;;;;;;6.95;3.17;;;4.40;99.90;;;;;;5009933;28;20433;-58
2021/01/25 09:28:58;;;;;;;5.68;2.58;;;4.50;99.90;;;;;;5009645;28;20048;-59
2021/01/25 09:31:26;;;;;;;5.43;2.63;;;4.50;99.90;;;;;;5006237;28;20112;-58
2021/01/25 09:33:54;;;;;;;7.43;3.65;;;4.60;99.90;;;;;;5002593;28;20053;-59
2021/01/25 09:36:21;;;;;;;9.52;3.50;;;4.70;99.90;;;;;;5008643;28;20042;-58
2021/01/25 09:39:07;;;;;;;6.53;2.53;;;4.80;99.70;;;;;;4998797;28;20042;-59
2021/01/25 09:41:35;;;;;;;6.82;2.65;;;5.00;97.00;;;;;;4996085;28;20711;-58
2021/01/25 09:44:03;;;;;;;7.28;2.67;;;5.20;97.20;;;;;;5020331;28;20038;-61
2021/01/25 09:46:31;;;;;;;5.68;3.05;;;5.30;96.90;;;;;;5008776;28;20128;-59
2021/01/25 09:48:58;;;;;;;5.72;2.88;;;5.40;95.00;;;;;;5009774;28;20128;-58
2021/01/25 09:51:24;;;;;;;5.88;2.90;;;5.50;94.80;;;;;;5010227;28;20104;-59
2021/01/25 09:53:51;;;;;;;5.18;2.55;;;5.70;94.80;;;;;;5007259;28;20041;-58
2021/01/25 09:56:17;;;;;;;5.15;2.70;;;5.80;92.50;;;;;;5006883;28;20046;-58
2021/01/25 09:58:44;;;;;;;9.65;3.67;;;6.00;93.40;;;;;;5021031;28;20057;-60
2021/01/25 10:01:11;;;;;;;8.35;3.15;;;6.10;93.20;;;;;;5007194;28;20054;-57
2021/01/25 10:03:37;;;;;;;6.05;2.65;;;6.10;91.90;;;;;;5010600;28;20390;-59
2021/01/25 10:06:04;;;;;;;5.75;3.03;;;6.30;91.10;;;;;;5010085;28;20049;-58
2021/01/25 10:08:30;;;;;;;5.72;2.63;;;6.30;90.00;;;;;;5009817;28;20049;-58
2021/01/25 10:10:57;;;;;;;8.10;3.42;;;6.40;90.60;;;;;;5009069;28;20100;-58
2021/01/25 10:13:23;;;;;;;5.82;2.65;;;6.40;89.70;;;;;;5007645;28;20054;-59
2021/01/25 10:15:50;;;;;;;9.20;3.15;;;6.50;87.40;;;;;;5010910;28;20492;-60
2021/01/25 10:18:18;;;;;;;5.07;2.42;;;6.60;86.40;;;;;;5007867;28;20097;-59
2021/01/25 10:20:44;;;;;;;4.80;2.63;;;6.50;83.10;;;;;;5009044;28;20481;-58
2021/01/25 10:23:11;;;;;;;6.38;2.70;;;6.60;83.80;;;;;;5006300;28;20049;-58
2021/01/25 10:25:37;;;;;;;9.15;3.28;;;6.50;82.20;;;;;;5009991;28;20046;-58
2021/01/25 10:28:04;;;;;;;6.80;2.47;;;6.60;81.90;;;;;;5010518;28;20057;-58
2021/01/25 10:30:30;;;;;;;7.43;2.97;;;6.80;82.30;;;;;;5010121;28;20041;-58
2021/01/25 10:32:57;;;;;;;6.20;2.40;;;6.80;84.90;;;;;;5008636;28;20081;-59
2021/01/25 10:35:24;;;;;;;4.25;2.50;;;7.00;85.50;;;;;;5010793;28;20052;-60
2021/01/25 10:37:51;;;;;;;4.43;2.00;;;7.00;83.90;;;;;;5009160;28;20050;-59
2021/01/25 10:40:19;;;;;;;4.57;2.10;;;6.90;84.30;;;;;;5011188;28;20509;-59
2021/01/25 10:42:46;;;;;;;5.60;2.28;;;6.90;83.30;;;;;;5012393;28;20120;-59
2021/01/25 10:45:13;;;;;;;4.82;2.30;;;7.00;81.70;;;;;;5009396;28;20539;-60
2021/01/25 10:47:40;;;;;;;4.10;1.85;;;7.00;79.20;;;;;;5010368;28;20037;-59
2021/01/25 10:50:13;;;;;;;4.90;2.33;;;6.90;79.30;;;;;;5007837;28;20042;-58
2021/01/25 10:52:44;;;;;;;8.02;4.32;;;7.00;79.10;;;;;;5009460;28;20049;-59
2021/01/25 10:55:11;;;;;;;5.30;3.08;;;7.00;79.60;;;;;;5007099;28;20045;-58
2021/01/25 10:57:39;;;;;;;4.80;2.00;;;7.10;78.60;;;;;;5010445;28;20046;-59
2021/01/25 11:00:13;;;;;;;6.28;2.70;;;7.10;76.10;;;;;;5008918;28;20045;-59
2021/01/25 11:02:39;;;;;;;8.55;3.50;;;7.10;77.20;;;;;;5024025;28;20057;-58
2021/01/25 11:05:07;;;;;;;7.63;3.30;;;7.30;78.10;;;;;;5009271;28;20767;-58
2021/01/25 11:07:36;;;;;;;7.40;3.38;;;7.40;77.10;;;;;;5010519;28;20054;-59
2021/01/25 11:10:08;;;;;;;8.00;4.10;;;7.80;78.00;;;;;;5010881;28;20068;-59
2021/01/25 11:12:35;;;;;;;3.70;1.63;;;8.10;77.00;;;;;;5008154;28;20053;-58
2021/01/25 11:15:02;;;;;;;7.72;2.97;;;8.20;73.90;;;;;;5009141;28;20045;-59
2021/01/25 11:17:29;;;;;;;5.55;2.72;;;8.20;75.90;;;;;;5012032;28;20600;-58
2021/01/25 11:19:56;;;;;;;8.60;3.17;;;8.40;73.70;;;;;;5005185;28;20080;-58
2021/01/25 11:22:22;;;;;;;3.30;2.20;;;8.80;75.10;;;;;;5001906;28;20052;-58
2021/01/25 11:24:49;;;;;;;3.92;2.10;;;8.80;71.60;;;;;;5010189;28;20045;-58
2021/01/25 11:27:17;;;;;;;5.65;2.30;;;8.60;71.10;;;;;;5010581;28;20049;-58
2021/01/25 11:29:44;;;;;;;9.75;2.22;;;8.60;71.00;;;;;;5001275;28;20038;-60
2021/01/25 11:32:11;;;;;;;7.47;3.83;;;8.40;71.20;;;;;;5012201;28;20045;-58
2021/01/25 11:34:38;;;;;;;7.93;3.33;;;8.30;72.40;;;;;;4999931;28;20046;-58
2021/01/25 11:37:05;;;;;;;6.55;2.95;;;8.30;71.40;;;;;;5010147;28;20049;-57
2021/01/25 11:39:33;;;;;;;6.95;2.70;;;8.30;70.80;;;;;;4991291;28;20095;-59
2021/01/25 11:42:00;;;;;;;4.82;2.53;;;8.50;70.00;;;;;;5006779;28;20046;-59
2021/01/25 11:44:27;;;;;;;5.78;3.05;;;8.40;70.40;;;;;;5014976;28;20558;-57
2021/01/25 11:46:54;;;;;;;6.40;2.92;;;8.50;69.10;;;;;;5011068;28;20500;-58
2021/01/25 11:49:21;;;;;;;7.07;2.70;;;8.20;69.60;;;;;;5010114;28;20053;-58
2021/01/25 11:51:48;;;;;;;5.88;3.00;;;8.00;72.50;;;;;;5010948;28;20045;-58
2021/01/25 11:54:15;;;;;;;5.32;2.17;;;7.90;69.80;;;;;;5012668;28;20045;-58
2021/01/25 11:56:41;;;;;;;4.15;2.22;;;7.60;70.80;;;;;;5010475;28;20042;-58
2021/01/25 11:59:08;;;;;;;4.35;2.50;;;7.60;70.60;;;;;;4999086;28;20477;-58
2021/01/25 12:01:36;;;;;;;6.85;3.40;;;7.30;70.20;;;;;;5009833;28;20073;-59
2021/01/25 12:04:04;;;;;;;6.03;2.65;;;7.30;73.30;;;;;;5008528;28;20398;-60
2021/01/25 12:06:31;;;;;;;6.97;2.85;;;7.20;73.30;;;;;;5011767;28;20042;-57
2021/01/25 12:08:58;;;;;;;4.65;3.40;;;7.20;73.00;;;;;;5010504;28;20069;-58
2021/01/25 12:11:25;;;;;;;7.15;3.08;;;7.30;73.90;;;;;;5008745;28;20041;-60
2021/01/25 12:13:51;;;;;;;7.93;3.28;;;7.30;73.00;;;;;;5008679;28;20050;-58
2021/01/25 12:16:18;;;;;;;7.43;3.20;;;7.70;74.10;;;;;;4998209;28;20042;-58
2021/01/25 12:18:45;;;;;;;5.07;2.35;;;7.70;72.00;;;;;;5010333;28;20052;-58
2021/01/25 12:21:13;;;;;;;7.07;2.95;;;7.70;71.60;;;;;;5010377;28;20560;-59
2021/01/25 12:23:40;;;;;;;7.10;3.25;;;7.80;73.00;;;;;;4991348;28;20128;-59
2021/01/25 12:26:06;;;;;;;6.00;3.03;;;7.80;71.50;;;;;;5007939;28;20042;-58
2021/01/25 12:28:33;;;;;;;6.20;3.58;;;8.00;70.70;;;;;;5010804;28;20038;-58
2021/01/25 12:31:04;;;;;;;6.00;2.53;;;8.00;70.90;;;;;;5008885;28;20108;-59
2021/01/25 12:33:32;;;;;;;4.53;2.38;;;8.10;71.30;;;;;;5012111;28;20049;-58
2021/01/25 12:35:59;;;;;;;6.68;3.10;;;8.00;70.60;;;;;;5010357;28;20096;-58
2021/01/25 12:38:25;;;;;;;11.05;7.30;;;7.90;71.50;;;;;;5009908;28;20058;-58
2021/01/25 12:40:52;;;;;;;5.68;3.03;;;7.90;71.80;;;;;;4994461;28;20058;-58
2021/01/25 12:43:20;;;;;;;5.97;3.17;;;7.90;71.60;;;;;;5006362;28;20050;-57
2021/01/25 12:45:46;;;;;;;5.97;2.85;;;7.70;70.30;;;;;;5007781;28;20088;-59
2021/01/25 12:48:13;;;;;;;4.25;1.88;;;7.70;69.30;;;;;;5009191;28;20045;-60
2021/01/25 12:50:39;;;;;;;5.68;2.47;;;7.60;70.20;;;;;;5010037;28;20412;-57
2021/01/25 12:53:06;;;;;;;5.63;1.95;;;7.40;70.10;;;;;;5006740;28;20034;-59
2021/01/25 12:55:33;;;;;;;7.47;2.63;;;7.20;71.30;;;;;;5008695;28;20501;-58
2021/01/25 12:57:59;;;;;;;5.00;2.67;;;6.90;71.20;;;;;;5010032;28;20049;-58
2021/01/25 13:00:28;;;;;;;7.30;2.33;;;6.70;72.20;;;;;;5008888;28;20060;-58
2021/01/25 13:02:55;;;;;;;8.55;3.15;;;6.40;74.10;;;;;;5012448;28;20125;-58
2021/01/25 13:05:22;;;;;;;6.65;2.95;;;6.30;74.80;;;;;;5001567;28;20074;-59